createdAt,value
2022-10-21T00:00:49.944Z,10.95
2022-10-21T00:03:35.585Z,11.27
2022-10-21T00:06:21.281Z,11.75
2022-10-21T00:09:06.998Z,11.45
2022-10-21T00:11:52.672Z,12.40
2022-10-21T00:14:38.212Z,11.90
2022-10-21T00:17:23.973Z,9.38
2022-10-21T00:20:12.231Z,11.77
2022-10-21T00:22:57.663Z,9.63
2022-10-21T00:25:43.256Z,11.27
2022-10-21T00:28:29.216Z,10.10
2022-10-21T00:31:15.809Z,9.40
2022-10-21T00:34:01.262Z,9.85
2022-10-21T00:36:46.904Z,11.52
2022-10-21T00:39:32.556Z,10.43
2022-10-21T00:42:21.592Z,11.07
2022-10-21T00:45:06.829Z,9.20
2022-10-21T00:47:52.334Z,8.68
2022-10-21T00:50:58.824Z,9.00
2022-10-21T00:53:49.174Z,9.95
2022-10-21T00:56:36.307Z,9.73
2022-10-21T00:59:24.089Z,9.25
2022-10-21T01:02:09.411Z,10.07
2022-10-21T01:04:59.463Z,9.48
2022-10-21T01:07:47.661Z,8.55
2022-10-21T01:10:33.496Z,10.90
2022-10-21T01:13:24.812Z,10.00
2022-10-21T01:16:15.922Z,9.93
2022-10-21T01:19:33.666Z,9.32
2022-10-21T01:22:44.994Z,11.05
2022-10-21T01:25:57.762Z,8.70
2022-10-21T01:28:55.160Z,8.02
2022-10-21T01:31:47.041Z,8.13
2022-10-21T01:34:41.670Z,8.73
2022-10-21T01:37:42.203Z,8.95
2022-10-21T01:40:50.214Z,6.10
2022-10-21T01:44:04.160Z,6.85
2022-10-21T01:47:05.077Z,6.03
2022-10-21T01:50:19.714Z,5.22
2022-10-21T01:53:10.164Z,5.78
2022-10-21T01:55:58.098Z,6.03
2022-10-21T01:58:45.723Z,5.70
2022-10-21T02:01:34.243Z,6.30
2022-10-21T02:04:20.688Z,5.97
2022-10-21T02:07:06.406Z,6.60
2022-10-21T02:09:51.956Z,5.60
2022-10-21T02:12:40.300Z,6.00
2022-10-21T02:15:27.369Z,6.03
2022-10-21T02:18:25.381Z,6.18
2022-10-21T02:21:15.279Z,5.72
2022-10-21T02:24:14.964Z,5.78
2022-10-21T02:27:00.462Z,5.93
2022-10-21T02:43:28.590Z,6.45
2022-10-21T02:46:14.955Z,6.70
2022-10-21T02:49:00.340Z,7.03
2022-10-21T02:51:46.278Z,7.07
2022-10-21T02:54:31.798Z,6.15
2022-10-21T02:57:17.409Z,6.32
2022-10-21T03:00:04.792Z,6.95
2022-10-21T03:02:50.004Z,7.47
2022-10-21T03:05:35.393Z,6.95
2022-10-21T03:08:21.087Z,7.05
2022-10-21T03:11:06.606Z,6.38
2022-10-21T03:13:52.058Z,6.90
2022-10-21T03:16:37.642Z,6.13
2022-10-21T03:19:23.149Z,6.97
2022-10-21T03:22:08.791Z,6.78
2022-10-21T03:24:54.323Z,6.80
2022-10-21T03:27:40.484Z,6.85
2022-10-21T03:30:26.131Z,7.13
2022-10-21T03:33:11.776Z,6.85
2022-10-21T03:35:57.424Z,6.43
2022-10-21T03:38:43.015Z,6.75
2022-10-21T03:41:28.694Z,7.03
2022-10-21T03:44:14.051Z,6.63
2022-10-21T03:46:59.611Z,6.43
2022-10-21T03:49:45.043Z,7.07
2022-10-21T03:52:30.529Z,6.18
2022-10-21T03:55:20.624Z,6.53
2022-10-21T03:58:06.414Z,7.50
2022-10-21T04:00:52.912Z,7.32
2022-10-21T04:03:38.207Z,6.05
2022-10-21T04:06:23.520Z,6.05
2022-10-21T04:09:09.162Z,6.93
2022-10-21T04:11:55.006Z,7.18
2022-10-21T04:14:40.516Z,6.35
2022-10-21T04:17:26.373Z,7.10
2022-10-21T04:20:11.970Z,7.18
2022-10-21T04:22:57.286Z,6.65
2022-10-21T04:25:44.814Z,6.55
2022-10-21T04:28:30.201Z,6.78
2022-10-21T04:31:15.701Z,6.72
2022-10-21T04:34:01.217Z,6.68
2022-10-21T04:36:46.812Z,6.25
2022-10-21T04:39:32.258Z,6.13
2022-10-21T04:42:17.535Z,7.10
2022-10-21T04:45:03.226Z,7.07
2022-10-21T04:47:48.633Z,6.18
2022-10-21T04:50:35.305Z,6.63
2022-10-21T04:53:21.780Z,6.28
2022-10-21T04:56:08.812Z,6.10
2022-10-21T04:58:54.332Z,6.70
2022-10-21T05:01:39.891Z,7.78
2022-10-21T05:04:25.470Z,8.13
2022-10-21T05:07:11.530Z,6.97
2022-10-21T05:09:57.193Z,7.82
2022-10-21T05:12:42.768Z,8.73
2022-10-21T05:15:28.373Z,9.63
2022-10-21T05:18:13.704Z,9.93
2022-10-21T05:20:59.752Z,8.15
2022-10-21T05:23:45.496Z,9.88
2022-10-21T05:26:31.101Z,8.20
2022-10-21T05:29:16.929Z,8.40
2022-10-21T05:32:02.069Z,7.85
2022-10-21T05:34:47.665Z,8.10
2022-10-21T05:37:33.330Z,6.57
2022-10-21T05:40:18.967Z,7.50
2022-10-21T05:43:04.265Z,6.75
2022-10-21T05:45:49.819Z,7.63
2022-10-21T05:48:35.769Z,6.80
2022-10-21T05:51:26.356Z,7.10
2022-10-21T05:54:12.016Z,6.75
2022-10-21T05:56:57.585Z,6.22
2022-10-21T05:59:43.014Z,6.18
2022-10-21T06:02:28.284Z,6.45
2022-10-21T06:05:14.095Z,7.30
2022-10-21T06:07:59.384Z,7.80
2022-10-21T06:10:45.140Z,7.53
2022-10-21T06:13:31.192Z,7.05
2022-10-21T06:16:16.936Z,7.72
2022-10-21T06:19:03.239Z,8.35
2022-10-21T06:21:49.327Z,6.38
2022-10-21T06:24:34.794Z,7.25
2022-10-21T06:27:20.527Z,6.65
2022-10-21T06:30:06.162Z,6.68
2022-10-21T06:32:51.609Z,7.95
2022-10-21T06:35:36.963Z,7.45
2022-10-21T06:38:23.648Z,7.55
2022-10-21T06:41:13.361Z,7.57
2022-10-21T06:44:00.390Z,7.82
2022-10-21T06:46:45.858Z,6.82
2022-10-21T06:49:31.619Z,7.78
2022-10-21T06:52:17.012Z,7.20
2022-10-21T06:55:02.527Z,7.65
2022-10-21T06:57:48.336Z,6.90
2022-10-21T07:00:33.856Z,7.38
2022-10-21T07:03:19.358Z,8.10
2022-10-21T07:06:05.239Z,8.35
2022-10-21T07:08:57.871Z,8.00
2022-10-21T07:11:44.789Z,7.30
2022-10-21T07:14:30.332Z,6.20
2022-10-21T07:17:15.893Z,7.18
2022-10-21T07:20:01.258Z,7.50
2022-10-21T07:22:47.169Z,8.10
2022-10-21T07:35:03.101Z,8.80
2022-10-21T07:37:48.365Z,8.75
2022-10-21T07:40:40.469Z,8.82
2022-10-21T07:43:26.310Z,9.23
2022-10-21T07:49:00.228Z,7.88
2022-10-21T07:51:46.481Z,9.10
2022-10-21T07:54:32.173Z,9.35
2022-10-21T07:57:17.441Z,8.77
2022-10-21T08:00:04.312Z,8.73
2022-10-21T08:02:56.618Z,8.63
2022-10-21T08:05:42.100Z,8.35
2022-10-21T08:08:28.249Z,7.97
2022-10-21T08:11:22.372Z,8.38
2022-10-21T08:14:09.702Z,7.72
2022-10-21T08:16:55.496Z,8.60
2022-10-21T08:19:40.920Z,9.80
2022-10-21T08:22:27.342Z,7.65
2022-10-21T08:25:16.688Z,8.27
2022-10-21T08:28:03.468Z,6.60
2022-10-21T08:30:49.421Z,7.10
2022-10-21T08:33:35.692Z,7.00
2022-10-21T08:36:25.134Z,8.55
2022-10-21T08:39:10.571Z,7.32
2022-10-21T08:42:04.989Z,8.07
2022-10-21T08:47:47.173Z,6.88
2022-10-21T08:50:47.123Z,7.03
2022-10-21T08:53:46.799Z,7.00
2022-10-21T08:56:32.495Z,7.20
2022-10-21T08:59:23.718Z,7.05
2022-10-21T09:02:27.523Z,7.32
2022-10-21T09:05:31.426Z,6.53
2022-10-21T09:08:16.995Z,6.60
2022-10-21T09:11:22.062Z,7.07
2022-10-21T09:17:25.786Z,7.45
2022-10-21T09:20:40.738Z,7.35
2022-10-21T09:23:44.745Z,6.57
2022-10-21T09:26:41.661Z,7.05
2022-10-21T09:29:58.369Z,7.22
2022-10-21T09:32:50.870Z,6.32
2022-10-21T09:35:42.576Z,6.07
2022-10-21T09:38:51.996Z,6.28
2022-10-21T09:41:41.444Z,5.18
2022-10-21T09:44:26.927Z,4.80
2022-10-21T09:47:24.407Z,5.25
2022-10-21T09:50:16.914Z,5.82
2022-10-21T09:53:13.442Z,5.47
2022-10-21T09:56:03.850Z,5.68
2022-10-21T09:58:53.465Z,5.72
2022-10-21T10:01:42.729Z,5.45
2022-10-21T10:04:33.417Z,5.55
2022-10-21T10:07:37.157Z,5.80
2022-10-21T10:10:33.522Z,5.35
2022-10-21T10:13:23.203Z,5.25
2022-10-21T10:16:29.188Z,5.32
2022-10-21T10:19:19.713Z,5.22
2022-10-21T10:22:10.541Z,5.00
2022-10-21T10:25:24.299Z,5.28
2022-10-21T10:28:10.144Z,4.90
2022-10-21T10:30:57.089Z,4.60
2022-10-21T10:33:58.768Z,6.05
2022-10-21T10:36:44.622Z,6.75
2022-10-21T10:39:33.709Z,10.82
2022-10-21T10:42:21.554Z,7.35
2022-10-21T10:45:20.652Z,5.63
2022-10-21T10:48:07.193Z,5.05
2022-10-21T10:50:52.572Z,13.98
2022-10-21T10:53:38.794Z,8.23
2022-10-21T10:56:35.760Z,5.28
2022-10-21T10:59:24.040Z,5.13
2022-10-21T11:02:09.695Z,6.07
2022-10-21T11:05:13.092Z,6.95
2022-10-21T11:08:01.839Z,5.78
2022-10-21T11:11:03.970Z,5.28
2022-10-21T11:13:49.642Z,5.55
2022-10-21T11:17:00.717Z,4.78
2022-10-21T11:20:00.453Z,5.13
2022-10-21T11:23:24.565Z,4.38
2022-10-21T11:26:32.700Z,3.97
2022-10-21T11:29:47.070Z,4.25
2022-10-21T11:33:11.454Z,3.75
2022-10-21T11:36:27.044Z,4.10
2022-10-21T11:39:32.150Z,4.25
2022-10-21T11:42:27.489Z,3.80
2022-10-21T11:45:37.134Z,4.13
2022-10-21T11:48:30.800Z,3.80
2022-10-21T11:51:26.457Z,4.07
2022-10-21T11:54:30.849Z,3.40
2022-10-21T11:57:35.365Z,3.30
2022-10-21T12:00:25.218Z,3.17
2022-10-21T12:03:22.698Z,3.33
2022-10-21T12:06:20.959Z,2.95
2022-10-21T12:09:17.216Z,3.47
2022-10-21T12:12:13.121Z,3.10
2022-10-21T12:15:03.726Z,3.40
2022-10-21T12:17:50.171Z,3.63
2022-10-21T12:20:35.519Z,3.33
2022-10-21T12:23:28.800Z,2.97
2022-10-21T12:26:28.795Z,3.50
2022-10-21T12:29:37.340Z,3.83
2022-10-21T12:32:33.489Z,4.00
2022-10-21T12:35:34.912Z,4.00
2022-10-21T12:38:25.256Z,3.72
2022-10-21T12:41:24.767Z,4.22
2022-10-21T12:44:29.396Z,3.78
2022-10-21T12:47:34.843Z,3.28
2022-10-21T12:50:26.230Z,3.20
2022-10-21T12:53:33.796Z,3.75
2022-10-21T12:56:39.169Z,3.15
2022-10-21T12:59:44.974Z,3.20
2022-10-21T13:02:30.646Z,3.20
2022-10-21T13:05:41.144Z,2.80
2022-10-21T13:08:28.787Z,3.10
2022-10-21T13:11:23.671Z,2.90
2022-10-21T13:14:35.388Z,2.97
2022-10-21T13:17:22.932Z,2.83
2022-10-21T13:20:26.844Z,2.90
2022-10-21T13:26:30.109Z,2.83
2022-10-21T13:29:46.857Z,3.20
2022-10-21T13:32:39.517Z,2.75
2022-10-21T13:35:33.747Z,3.00
2022-10-21T13:38:57.538Z,2.85
2022-10-21T13:41:47.056Z,3.20
2022-10-21T13:44:45.131Z,3.22
2022-10-21T13:47:35.571Z,3.00
2022-10-21T13:50:26.540Z,3.50
2022-10-21T13:53:23.433Z,2.70
2022-10-21T13:56:19.338Z,3.30
2022-10-21T13:59:07.805Z,2.92
2022-10-21T14:01:57.140Z,2.75
2022-10-21T14:04:44.127Z,2.80
2022-10-21T14:07:31.633Z,3.85
2022-10-21T14:10:18.726Z,3.20
2022-10-21T14:13:04.863Z,2.92
2022-10-21T14:15:52.225Z,3.78
2022-10-21T14:18:42.462Z,3.15
2022-10-21T14:21:31.462Z,3.40
2022-10-21T14:24:27.011Z,3.58
2022-10-21T14:27:19.903Z,3.67
2022-10-21T14:30:10.842Z,3.47
2022-10-21T14:33:01.210Z,3.63
2022-10-21T14:36:07.200Z,3.38
2022-10-21T14:38:59.212Z,2.95
2022-10-21T14:41:46.098Z,2.80
2022-10-21T14:44:32.450Z,3.10
2022-10-21T14:47:20.878Z,2.78
2022-10-21T14:50:06.337Z,3.10
2022-10-21T14:52:52.898Z,2.95
2022-10-21T14:55:40.102Z,2.95
2022-10-21T14:58:48.090Z,3.28
2022-10-21T15:01:33.376Z,3.70
2022-10-21T15:04:42.663Z,3.63
2022-10-21T15:07:35.754Z,3.20
2022-10-21T15:10:21.816Z,3.65
2022-10-21T15:13:18.657Z,3.90
2022-10-21T15:16:19.207Z,3.28
2022-10-21T15:19:18.164Z,4.25
2022-10-21T15:22:05.776Z,3.88
2022-10-21T15:24:52.852Z,3.85
2022-10-21T15:27:42.499Z,3.40
2022-10-21T15:30:35.110Z,4.65
2022-10-21T15:33:20.658Z,4.55
2022-10-21T15:36:14.636Z,4.10
2022-10-21T15:39:02.283Z,4.07
2022-10-21T15:41:56.661Z,4.20
2022-10-21T15:44:47.906Z,4.05
2022-10-21T15:47:33.230Z,4.65
2022-10-21T15:50:21.646Z,4.57
2022-10-21T15:53:07.103Z,4.75
2022-10-21T15:55:54.232Z,5.32
2022-10-21T15:58:39.925Z,5.63
2022-10-21T16:01:27.113Z,8.23
2022-10-21T16:04:12.793Z,5.63
2022-10-21T16:06:58.201Z,4.95
2022-10-21T16:09:43.717Z,4.70
2022-10-21T16:12:29.286Z,4.82
2022-10-21T16:15:14.937Z,4.20
2022-10-21T16:18:00.640Z,4.88
2022-10-21T16:20:48.695Z,4.80
2022-10-21T16:23:36.375Z,4.70
2022-10-21T16:26:24.709Z,4.55
2022-10-21T16:29:24.849Z,4.78
2022-10-21T16:32:12.383Z,4.03
2022-10-21T16:34:57.536Z,4.10
2022-10-21T16:37:44.152Z,4.15
2022-10-21T16:40:35.173Z,5.07
2022-10-21T16:43:20.662Z,4.82
2022-10-21T16:46:06.661Z,4.65
2022-10-21T16:48:53.807Z,5.70
2022-10-21T16:51:40.797Z,5.68
2022-10-21T16:54:26.699Z,4.88
2022-10-21T16:57:12.499Z,5.97
2022-10-21T16:59:58.937Z,6.30
2022-10-21T17:02:49.048Z,6.40
2022-10-21T17:05:35.704Z,6.07
2022-10-21T17:08:21.576Z,5.85
2022-10-21T17:11:12.337Z,6.25
2022-10-21T17:13:58.106Z,6.47
2022-10-21T17:16:45.307Z,6.30
2022-10-21T17:19:30.891Z,6.10
2022-10-21T17:22:17.178Z,6.80
2022-10-21T17:25:02.803Z,6.65
2022-10-21T17:27:48.252Z,6.63
2022-10-21T17:30:34.118Z,6.10
2022-10-21T17:33:19.911Z,5.75
2022-10-21T17:36:05.989Z,5.45
2022-10-21T17:38:51.470Z,5.78
2022-10-21T17:41:36.831Z,5.50
2022-10-21T17:44:22.443Z,5.53
2022-10-21T17:47:07.822Z,6.05
2022-10-21T17:49:53.167Z,5.80
2022-10-21T17:52:39.303Z,6.13
2022-10-21T17:55:24.992Z,5.40
2022-10-21T17:58:10.335Z,5.53
2022-10-21T18:00:56.720Z,4.78
2022-10-21T18:03:42.082Z,5.00
2022-10-21T18:06:27.603Z,4.28
2022-10-21T18:09:12.873Z,4.55
2022-10-21T18:12:02.043Z,4.55
2022-10-21T18:14:51.550Z,4.80
2022-10-21T18:17:40.008Z,5.00
2022-10-21T18:20:25.720Z,4.80
2022-10-21T18:23:11.556Z,4.88
2022-10-21T18:26:01.830Z,4.45
2022-10-21T18:28:52.838Z,4.30
2022-10-21T18:31:38.753Z,4.50
2022-10-21T18:34:23.983Z,4.53
2022-10-21T18:37:09.989Z,4.07
2022-10-21T18:39:58.257Z,3.35
2022-10-21T18:42:44.653Z,3.30
2022-10-21T18:45:30.165Z,3.00
2022-10-21T18:48:15.302Z,3.45
2022-10-21T18:51:08.677Z,3.58
2022-10-21T18:53:54.234Z,3.60
2022-10-21T18:56:41.152Z,3.20
2022-10-21T18:59:26.500Z,3.55
2022-10-21T19:02:20.730Z,4.22
2022-10-21T19:05:06.611Z,4.35
2022-10-21T19:07:53.470Z,3.90
2022-10-21T19:10:38.947Z,4.03
2022-10-21T19:13:24.495Z,5.00
2022-10-21T19:16:09.891Z,4.43
2022-10-21T19:18:55.701Z,4.35
2022-10-21T19:21:41.181Z,4.53
2022-10-21T19:24:26.597Z,4.82
2022-10-21T19:27:12.063Z,4.90
2022-10-21T19:29:57.212Z,4.43
2022-10-21T19:32:42.876Z,4.47
2022-10-21T19:35:28.955Z,4.50
2022-10-21T19:38:20.708Z,4.00
2022-10-21T19:41:12.418Z,4.50
2022-10-21T19:43:58.526Z,4.60
2022-10-21T19:46:44.773Z,4.63
2022-10-21T19:49:30.406Z,4.85
2022-10-21T19:52:15.779Z,4.70
2022-10-21T19:55:01.301Z,4.63
2022-10-21T19:57:47.049Z,4.72
2022-10-21T20:00:32.957Z,4.50
2022-10-21T20:03:18.123Z,5.15
2022-10-21T20:09:02.372Z,4.72
2022-10-21T20:11:48.114Z,6.55
2022-10-21T20:14:33.517Z,5.45
2022-10-21T20:17:19.258Z,4.88
2022-10-21T20:20:05.017Z,5.13
2022-10-21T20:22:50.228Z,4.50
2022-10-21T20:25:35.899Z,5.95
2022-10-21T20:28:21.335Z,4.50
2022-10-21T20:31:11.563Z,4.80
2022-10-21T20:33:57.187Z,4.32
2022-10-21T20:36:42.455Z,5.10
2022-10-21T20:39:28.144Z,4.78
2022-10-21T20:42:13.534Z,4.35
2022-10-21T20:44:59.086Z,4.93
2022-10-21T20:47:44.580Z,5.07
2022-10-21T20:50:30.198Z,4.85
2022-10-21T20:53:15.844Z,5.20
2022-10-21T20:56:03.567Z,6.05
2022-10-21T20:58:49.420Z,8.75
2022-10-21T21:01:41.344Z,7.60
2022-10-21T21:04:27.548Z,5.30
2022-10-21T21:07:13.547Z,5.20
2022-10-21T21:10:02.647Z,6.45
2022-10-21T21:12:48.622Z,6.53
2022-10-21T21:15:33.964Z,5.40
2022-10-21T21:18:20.279Z,5.63
2022-10-21T21:21:15.643Z,5.00
2022-10-21T21:24:02.539Z,5.38
2022-10-21T21:26:47.817Z,6.68
2022-10-21T21:29:33.194Z,6.03
2022-10-21T21:32:19.853Z,5.40
2022-10-21T21:35:06.257Z,5.22
2022-10-21T21:37:51.833Z,6.45
2022-10-21T21:40:37.355Z,6.78
2022-10-21T21:43:23.193Z,5.40
2022-10-21T21:46:09.571Z,4.30
2022-10-21T21:49:02.299Z,4.10
2022-10-21T21:51:47.976Z,4.50
2022-10-21T21:54:33.542Z,3.35
2022-10-21T21:57:34.354Z,3.40
2022-10-21T22:00:19.882Z,3.80
2022-10-21T22:03:05.957Z,3.25
2022-10-21T22:05:51.474Z,3.60
2022-10-21T22:08:42.359Z,3.10
2022-10-21T22:11:30.648Z,3.10
2022-10-21T22:14:16.136Z,2.95
2022-10-21T22:17:01.815Z,3.40
2022-10-21T22:19:50.555Z,3.70
2022-10-21T22:22:38.502Z,3.83
2022-10-21T22:25:23.860Z,3.83
2022-10-21T22:28:09.415Z,3.30
2022-10-21T22:31:05.041Z,3.38
2022-10-21T22:33:51.905Z,3.28
2022-10-21T22:36:37.318Z,3.45
2022-10-21T22:39:22.723Z,3.22
2022-10-21T22:42:08.306Z,3.08
2022-10-21T22:44:54.233Z,3.55
2022-10-21T22:47:40.070Z,2.83
2022-10-21T22:50:26.012Z,2.50
2022-10-21T22:53:11.676Z,2.33
2022-10-21T22:55:57.309Z,2.20
2022-10-21T22:58:43.449Z,2.30
2022-10-21T23:01:31.299Z,1.90
2022-10-21T23:04:16.909Z,1.75
2022-10-21T23:07:02.474Z,1.80
2022-10-21T23:09:47.813Z,1.42
2022-10-21T23:12:33.283Z,1.40
2022-10-21T23:15:19.128Z,1.05
2022-10-21T23:18:04.641Z,1.33
2022-10-21T23:20:50.043Z,1.23
2022-10-21T23:23:35.724Z,1.20
2022-10-21T23:26:22.183Z,1.02
2022-10-21T23:29:07.716Z,1.10
2022-10-21T23:31:54.553Z,1.10
2022-10-21T23:34:40.662Z,1.25
2022-10-21T23:37:26.539Z,0.90
2022-10-21T23:40:12.858Z,1.00
2022-10-21T23:42:58.489Z,1.17
2022-10-21T23:45:44.012Z,1.00
2022-10-21T23:48:29.872Z,1.30
2022-10-21T23:51:15.539Z,0.70
2022-10-21T23:54:00.755Z,0.90
2022-10-21T23:56:46.271Z,1.23
2022-10-21T23:59:31.986Z,1.63
